createdAt,value
2019-05-07T03:17:42.911Z,4.57
2019-05-07T03:20:16.414Z,4.50
2019-05-07T03:22:45.545Z,4.93
2019-05-07T03:25:19.399Z,5.23
2019-05-07T03:27:48.495Z,4.67
2019-05-07T03:30:26.008Z,5.40
2019-05-07T03:33:06.884Z,4.90
2019-05-07T03:35:46.397Z,5.20
2019-05-07T03:38:15.826Z,5.47
2019-05-07T03:40:45.103Z,6.10
2019-05-07T03:43:14.508Z,6.23
2019-05-07T03:45:54.040Z,6.43
2019-05-07T03:48:24.946Z,6.37
2019-05-07T03:50:53.997Z,7.13
2019-05-07T03:53:23.544Z,6.90
2019-05-07T03:55:53.839Z,6.07
2019-05-07T03:58:23.872Z,6.60
2019-05-07T04:00:53.769Z,6.10
2019-05-07T04:03:24.447Z,5.60
2019-05-07T04:05:53.960Z,5.53
2019-05-07T04:08:23.878Z,5.20
2019-05-07T04:10:53.971Z,4.87
2019-05-07T04:13:24.085Z,5.40
2019-05-07T04:15:53.594Z,5.27
2019-05-07T04:18:23.659Z,5.33
2019-05-07T04:20:53.942Z,4.30
2019-05-07T04:23:23.682Z,4.90
2019-05-07T04:26:04.232Z,4.50
2019-05-07T04:28:55.763Z,5.27
2019-05-07T04:31:26.348Z,5.97
2019-05-07T04:33:57.014Z,4.70
2019-05-07T04:36:34.102Z,4.90
2019-05-07T04:39:02.962Z,5.23
2019-05-07T04:41:32.950Z,5.10
2019-05-07T04:44:03.665Z,4.60
2019-05-07T04:46:33.535Z,5.50
2019-05-07T04:49:03.764Z,5.57
2019-05-07T04:51:45.944Z,5.43
2019-05-07T04:54:14.985Z,5.33
2019-05-07T04:56:44.080Z,5.60
2019-05-07T04:59:13.351Z,5.47
2019-05-07T05:01:47.595Z,4.87
2019-05-07T05:04:26.934Z,4.77
2019-05-07T05:06:47.317Z,5.00
2019-05-07T05:09:16.351Z,5.60
2019-05-07T05:11:46.000Z,5.03
2019-05-07T05:14:15.042Z,5.47
2019-05-07T05:16:43.954Z,5.40
2019-05-07T05:19:12.904Z,5.23
2019-05-07T05:21:49.235Z,4.90
2019-05-07T05:24:23.303Z,4.67
2019-05-07T05:26:52.631Z,4.17
2019-05-07T05:29:22.704Z,4.07
2019-05-07T05:31:52.862Z,4.23
2019-05-07T05:34:22.350Z,4.63
2019-05-07T05:36:53.237Z,4.97
2019-05-07T05:39:22.592Z,4.33
2019-05-07T05:41:55.665Z,4.77
2019-05-07T05:44:32.043Z,4.10
2019-05-07T05:47:02.399Z,4.40
2019-05-07T05:49:32.190Z,4.30
2019-05-07T05:52:24.478Z,4.30
2019-05-07T05:55:12.487Z,4.63
2019-05-07T05:57:51.962Z,4.10
2019-05-07T06:00:38.970Z,4.77
2019-05-07T06:03:27.223Z,5.37
2019-05-07T06:06:02.743Z,4.70
2019-05-07T06:08:37.713Z,5.07
2019-05-07T06:11:28.982Z,4.40
2019-05-07T06:14:03.580Z,5.13
2019-05-07T06:16:36.844Z,4.70
2019-05-07T06:19:27.772Z,4.93
2019-05-07T06:22:18.539Z,6.20
2019-05-07T06:24:56.341Z,6.77
2019-05-07T06:27:24.427Z,5.73
2019-05-07T06:29:53.555Z,5.57
2019-05-07T06:32:23.004Z,5.60
2019-05-07T06:34:52.389Z,5.80
2019-05-07T06:37:22.850Z,5.93
2019-05-07T06:40:03.296Z,7.30
2019-05-07T06:42:54.344Z,5.87
2019-05-07T06:45:44.321Z,5.63
2019-05-07T06:48:13.389Z,5.90
2019-05-07T06:50:56.588Z,6.23
2019-05-07T06:53:27.292Z,6.37
2019-05-07T06:55:57.012Z,6.83
2019-05-07T06:58:29.482Z,5.43
2019-05-07T07:01:22.793Z,7.67
2019-05-07T07:04:13.067Z,6.63
2019-05-07T07:07:01.813Z,5.17
2019-05-07T07:09:35.942Z,4.63
2019-05-07T07:12:08.530Z,5.37
2019-05-07T07:14:37.719Z,5.80
2019-05-07T07:17:06.839Z,6.20
2019-05-07T07:19:36.304Z,6.10
2019-05-07T07:22:05.454Z,4.73
2019-05-07T07:24:34.406Z,5.50
2019-05-07T07:27:03.498Z,5.73
2019-05-07T07:29:34.157Z,5.57
2019-05-07T07:32:04.767Z,6.17
2019-05-07T07:34:37.520Z,5.77
2019-05-07T07:37:15.710Z,5.07
2019-05-07T07:39:43.531Z,5.80
2019-05-07T07:42:12.595Z,5.73
2019-05-07T07:44:42.532Z,6.60
2019-05-07T07:47:12.940Z,6.10
2019-05-07T07:49:42.216Z,5.60
2019-05-07T07:52:12.236Z,7.13
2019-05-07T07:54:42.903Z,5.50
2019-05-07T07:57:32.419Z,5.63
2019-05-07T08:00:23.639Z,6.23
2019-05-07T08:02:57.074Z,6.37
2019-05-07T08:05:26.051Z,6.30
2019-05-07T08:07:55.127Z,5.50
2019-05-07T08:10:24.187Z,5.90
2019-05-07T08:12:53.185Z,5.67
2019-05-07T08:15:24.659Z,5.93
2019-05-07T08:17:53.212Z,5.60
2019-05-07T08:20:24.006Z,6.43
2019-05-07T08:22:53.254Z,5.83
2019-05-07T08:25:42.598Z,7.33
2019-05-07T08:28:11.989Z,6.03
2019-05-07T08:30:42.752Z,5.93
2019-05-07T08:33:16.515Z,5.77
2019-05-07T08:36:14.303Z,6.87
2019-05-07T08:38:52.883Z,6.10
2019-05-07T08:41:23.037Z,5.00
2019-05-07T08:44:08.108Z,5.40
2019-05-07T08:46:57.539Z,5.33
2019-05-07T08:49:37.034Z,5.97
2019-05-07T08:52:03.812Z,5.50
2019-05-07T08:54:33.800Z,6.40
2019-05-07T08:57:03.196Z,6.13
2019-05-07T08:59:33.885Z,4.83
2019-05-07T09:02:03.539Z,5.40
2019-05-07T09:04:33.019Z,5.67
2019-05-07T09:07:02.831Z,5.90
2019-05-07T09:09:32.591Z,6.20
2019-05-07T09:12:03.112Z,5.70
2019-05-07T09:14:32.391Z,5.73
2019-05-07T09:17:02.486Z,6.10
2019-05-07T09:19:46.852Z,7.20
2019-05-07T09:22:04.098Z,6.70
2019-05-07T09:24:33.544Z,7.00
2019-05-07T09:27:24.886Z,6.33
2019-05-07T09:30:13.052Z,6.73
2019-05-07T09:32:53.178Z,6.50
2019-05-07T09:35:26.082Z,6.00
2019-05-07T09:37:55.096Z,6.13
2019-05-07T09:40:24.137Z,6.10
2019-05-07T09:42:53.314Z,6.00
2019-05-07T09:45:22.642Z,5.93
2019-05-07T09:47:52.200Z,5.77
2019-05-07T09:50:22.091Z,5.20
2019-05-07T09:52:51.852Z,6.20
2019-05-07T09:55:23.181Z,6.20
2019-05-07T09:57:52.765Z,6.20
2019-05-07T10:00:22.713Z,5.40
2019-05-07T10:02:52.817Z,5.73
2019-05-07T10:05:22.326Z,6.40
2019-05-07T10:07:52.653Z,5.60
2019-05-07T10:10:22.329Z,6.00
2019-05-07T10:13:08.982Z,5.60
2019-05-07T10:15:38.102Z,6.37
2019-05-07T10:18:13.319Z,5.20
2019-05-07T10:20:42.691Z,5.30
2019-05-07T10:23:22.981Z,6.10
2019-05-07T10:25:53.502Z,5.90
2019-05-07T10:28:23.610Z,5.40
2019-05-07T10:30:53.915Z,5.60
2019-05-07T10:33:23.547Z,5.92
2019-05-07T10:35:53.044Z,6.80
2019-05-07T10:38:22.294Z,5.97
2019-05-07T10:40:51.383Z,5.97
2019-05-07T10:43:22.277Z,6.20
2019-05-07T10:46:02.378Z,5.90
2019-05-07T10:48:53.488Z,6.00
2019-05-07T10:51:22.762Z,5.97
2019-05-07T10:53:51.884Z,7.10
2019-05-07T10:56:22.299Z,5.67
2019-05-07T10:58:52.253Z,5.87
2019-05-07T11:01:28.989Z,6.60
2019-05-07T11:03:58.074Z,5.93
2019-05-07T11:06:27.055Z,5.93
2019-05-07T11:08:56.054Z,6.20
2019-05-07T11:11:25.074Z,7.13
2019-05-07T11:13:56.155Z,6.20
2019-05-07T11:16:27.354Z,6.17
2019-05-07T11:18:56.370Z,5.83
2019-05-07T11:21:33.235Z,6.50
2019-05-07T11:24:03.215Z,6.40
2019-05-07T11:26:32.976Z,6.13
2019-05-07T11:29:02.508Z,6.50
2019-05-07T11:31:33.146Z,7.13
2019-05-07T11:34:02.965Z,6.43
2019-05-07T11:36:34.353Z,6.70
2019-05-07T11:39:04.744Z,7.07
2019-05-07T11:42:06.574Z,7.20
2019-05-07T11:44:35.770Z,6.13
2019-05-07T11:47:31.712Z,7.13
2019-05-07T11:50:32.991Z,7.27
2019-05-07T11:53:09.283Z,5.93
2019-05-07T11:55:38.278Z,7.20
2019-05-07T11:58:07.274Z,6.93
2019-05-07T12:00:44.399Z,7.10
2019-05-07T12:03:13.523Z,6.63
2019-05-07T12:05:42.511Z,6.27
2019-05-07T12:08:13.201Z,5.90
2019-05-07T12:10:42.424Z,7.00
2019-05-07T12:13:12.831Z,6.50
2019-05-07T12:15:42.863Z,6.27
2019-05-07T12:18:12.010Z,5.97
2019-05-07T12:20:41.119Z,6.93
2019-05-07T12:23:12.089Z,6.80
2019-05-07T12:25:42.382Z,8.00
2019-05-07T12:28:13.270Z,6.73
2019-05-07T12:31:07.858Z,6.40
2019-05-07T12:33:53.611Z,6.47
2019-05-07T12:36:22.920Z,7.00
2019-05-07T12:38:53.237Z,6.80
2019-05-07T12:41:34.608Z,5.73
2019-05-07T12:44:07.906Z,6.30
2019-05-07T12:46:37.999Z,7.57
2019-05-07T12:49:07.301Z,6.43
2019-05-07T12:51:59.708Z,7.10
2019-05-07T12:54:56.867Z,6.90
2019-05-07T12:57:25.795Z,5.37
2019-05-07T12:59:54.839Z,6.73
2019-05-07T13:02:42.100Z,7.20
2019-05-07T13:05:09.126Z,6.57
2019-05-07T13:07:54.511Z,6.07
2019-05-07T13:10:23.580Z,5.97
2019-05-07T13:12:52.798Z,6.13
2019-05-07T13:15:27.520Z,6.70
2019-05-07T13:17:52.709Z,5.43
2019-05-07T13:20:22.659Z,6.17
2019-05-07T13:22:51.906Z,6.20
2019-05-07T13:25:21.614Z,6.90
2019-05-07T13:27:52.098Z,6.30
2019-05-07T13:30:22.229Z,6.97
2019-05-07T13:32:52.582Z,7.00
2019-05-07T13:35:21.909Z,7.37
2019-05-07T13:38:11.834Z,7.67
2019-05-07T13:41:12.716Z,6.33
2019-05-07T13:44:19.602Z,6.60
2019-05-07T13:46:52.878Z,6.90
2019-05-07T13:49:22.029Z,6.70
2019-05-07T13:52:02.866Z,7.20
2019-05-07T13:54:22.596Z,6.60
2019-05-07T13:56:52.520Z,7.10
2019-05-07T13:59:22.423Z,7.27
2019-05-07T14:02:05.222Z,6.83
2019-05-07T14:04:34.306Z,7.50
2019-05-07T14:07:03.568Z,6.83
2019-05-07T14:09:32.730Z,6.43
2019-05-07T14:12:02.148Z,6.80
2019-05-07T14:14:34.126Z,6.93
2019-05-07T14:17:02.536Z,7.37
2019-05-07T14:19:32.684Z,6.50
2019-05-07T14:22:14.748Z,6.07
2019-05-07T14:24:32.932Z,7.03
2019-05-07T14:27:03.122Z,7.60
2019-05-07T14:29:32.229Z,6.70
2019-05-07T14:32:09.867Z,5.70
2019-05-07T14:34:57.952Z,6.10
2019-05-07T14:37:34.272Z,6.43
2019-05-07T14:40:03.491Z,5.43
2019-05-07T14:42:38.512Z,5.93
2019-05-07T14:45:07.910Z,6.00
2019-05-07T14:47:36.975Z,6.10
2019-05-07T14:50:06.443Z,5.70
2019-05-07T14:52:36.257Z,6.40
2019-05-07T14:55:06.697Z,6.37
2019-05-07T14:57:35.814Z,6.80
2019-05-07T15:00:05.751Z,6.30
2019-05-07T15:02:34.929Z,5.50
2019-05-07T15:05:04.737Z,6.30
2019-05-07T15:07:33.886Z,5.30
2019-05-07T15:10:03.139Z,6.90
2019-05-07T15:12:33.056Z,6.13
2019-05-07T15:15:02.369Z,6.10
2019-05-07T15:17:55.624Z,5.93
2019-05-07T15:20:26.796Z,6.00
2019-05-07T15:23:02.683Z,6.60
2019-05-07T15:25:33.723Z,6.47
2019-05-07T15:28:03.057Z,6.50
2019-05-07T15:30:41.811Z,6.37
2019-05-07T15:33:12.739Z,6.23
2019-05-07T15:35:42.437Z,7.50
2019-05-07T15:38:22.141Z,5.67
2019-05-07T15:40:51.981Z,6.63
2019-05-07T15:43:24.203Z,7.00
2019-05-07T15:45:53.979Z,5.57
2019-05-07T15:48:23.059Z,6.20
2019-05-07T15:50:52.270Z,5.90
2019-05-07T15:53:32.248Z,6.37
2019-05-07T15:56:01.832Z,6.47
2019-05-07T15:58:31.148Z,6.90
2019-05-07T16:01:02.064Z,5.60
2019-05-07T16:03:37.832Z,6.70
2019-05-07T16:06:06.907Z,5.53
2019-05-07T16:08:42.578Z,7.23
2019-05-07T16:11:12.534Z,6.77
2019-05-07T16:13:45.515Z,6.50
2019-05-07T16:16:14.760Z,7.40
2019-05-07T16:19:01.902Z,6.70
2019-05-07T16:21:32.484Z,6.23
2019-05-07T16:24:03.892Z,6.50
2019-05-07T16:26:32.761Z,7.40
2019-05-07T16:29:04.365Z,6.37
2019-05-07T16:31:33.375Z,7.07
2019-05-07T16:34:02.780Z,6.80
2019-05-07T16:36:33.078Z,6.60
2019-05-07T16:39:03.477Z,6.80
2019-05-07T16:41:32.900Z,6.10
2019-05-07T16:44:02.901Z,5.60
2019-05-07T16:46:32.082Z,6.10
2019-05-07T16:49:02.254Z,5.67
2019-05-07T16:51:33.062Z,6.50
2019-05-07T16:54:03.438Z,7.00
2019-05-07T16:56:33.951Z,7.17
2019-05-07T16:59:07.450Z,6.23
2019-05-07T17:01:36.124Z,6.50
2019-05-07T17:04:05.668Z,6.60
2019-05-07T17:06:34.618Z,6.23
2019-05-07T17:09:13.485Z,5.67
2019-05-07T17:11:43.654Z,5.80
2019-05-07T17:14:13.211Z,6.50
2019-05-07T17:16:42.338Z,6.10
2019-05-07T17:19:12.816Z,6.63
2019-05-07T17:21:43.113Z,5.50
2019-05-07T17:24:12.331Z,6.97
2019-05-07T17:26:42.281Z,6.30
2019-05-07T17:29:12.067Z,6.97
2019-05-07T17:31:42.438Z,5.73
2019-05-07T17:34:11.959Z,7.00
2019-05-07T17:36:42.203Z,7.33
2019-05-07T17:39:12.140Z,6.47
2019-05-07T17:41:43.010Z,8.50
2019-05-07T17:44:12.087Z,6.70
2019-05-07T17:46:42.867Z,8.10
2019-05-07T17:49:12.103Z,6.53
2019-05-07T17:51:44.670Z,6.60
2019-05-07T17:54:14.205Z,6.60
2019-05-07T17:56:43.524Z,7.70
2019-05-07T17:59:12.678Z,7.00
2019-05-07T18:02:01.759Z,6.33
2019-05-07T18:04:33.735Z,6.70
2019-05-07T18:07:02.997Z,7.57
2019-05-07T18:09:32.278Z,6.37
2019-05-07T18:12:01.223Z,6.63
2019-05-07T18:14:32.186Z,6.97
2019-05-07T18:17:10.113Z,7.50
2019-05-07T18:19:39.190Z,7.03
2019-05-07T18:22:08.328Z,7.63
2019-05-07T18:24:37.772Z,6.70
2019-05-07T18:27:08.830Z,7.87
2019-05-07T18:29:38.230Z,6.17
2019-05-07T18:32:07.578Z,7.13
2019-05-07T18:34:36.678Z,6.57
2019-05-07T18:37:05.856Z,7.30
2019-05-07T18:39:34.778Z,6.80
2019-05-07T18:42:03.786Z,7.37
2019-05-07T18:44:32.866Z,7.70
2019-05-07T18:47:02.341Z,6.57
2019-05-07T18:49:31.538Z,7.10
2019-05-07T18:52:02.712Z,6.70
2019-05-07T18:54:31.703Z,7.07
2019-05-07T18:57:02.334Z,7.60
2019-05-07T18:59:33.147Z,6.90
2019-05-07T19:02:02.350Z,7.23
2019-05-07T19:04:32.832Z,6.60
2019-05-07T19:07:02.519Z,6.87
2019-05-07T19:09:32.142Z,7.23
2019-05-07T19:12:01.434Z,7.30
2019-05-07T19:14:33.102Z,7.17
2019-05-07T19:17:03.200Z,7.43
2019-05-07T19:19:32.778Z,7.03
2019-05-07T19:22:02.215Z,8.07
2019-05-07T19:24:44.648Z,8.40
2019-05-07T19:27:02.274Z,7.60
2019-05-07T19:29:32.598Z,7.90
2019-05-07T19:32:03.213Z,7.83
2019-05-07T19:34:32.614Z,7.77
2019-05-07T19:37:02.618Z,8.37
2019-05-07T19:39:33.390Z,8.20
2019-05-07T19:42:02.719Z,8.07
2019-05-07T19:44:31.746Z,9.07
2019-05-07T19:47:02.035Z,8.13
2019-05-07T19:49:32.447Z,8.50
2019-05-07T19:52:01.889Z,8.20
2019-05-07T19:54:32.446Z,8.53
2019-05-07T19:57:02.698Z,7.50
2019-05-07T19:59:32.636Z,9.73
2019-05-07T20:02:03.697Z,8.10
2019-05-07T20:04:33.088Z,8.63
2019-05-07T20:07:02.871Z,8.50
2019-05-07T20:09:34.626Z,9.00
2019-05-07T20:12:03.958Z,7.90
2019-05-07T20:14:33.283Z,8.33
2019-05-07T20:17:02.438Z,8.97
2019-05-07T20:19:32.722Z,10.27
2019-05-07T20:22:02.188Z,8.63
2019-05-07T20:24:32.930Z,8.13
2019-05-07T20:27:03.097Z,8.93
2019-05-07T20:29:32.513Z,9.17
2019-05-07T20:32:01.710Z,8.10
2019-05-07T20:34:32.715Z,8.33
2019-05-07T20:37:02.077Z,9.00
2019-05-07T20:39:32.264Z,8.47
2019-05-07T20:42:03.005Z,9.23
2019-05-07T20:44:32.557Z,9.30
2019-05-07T20:47:01.919Z,8.87
2019-05-07T20:49:32.061Z,8.30
2019-05-07T20:52:01.451Z,8.00
2019-05-07T20:54:44.784Z,7.20
2019-05-07T20:57:36.063Z,8.83
2019-05-07T21:00:07.409Z,7.67
2019-05-07T21:02:45.480Z,8.40
2019-05-07T21:05:07.230Z,7.43
2019-05-07T21:07:36.130Z,8.03
2019-05-07T21:10:05.202Z,7.70
2019-05-07T21:12:34.212Z,7.50
2019-05-07T21:15:03.633Z,8.37
2019-05-07T21:17:32.631Z,7.43
2019-05-07T21:20:01.752Z,7.20
2019-05-07T21:22:31.944Z,8.27
2019-05-07T21:25:02.711Z,8.40
2019-05-07T21:27:32.152Z,7.67
2019-05-07T21:30:02.460Z,6.97
2019-05-07T21:32:32.501Z,7.30
2019-05-07T21:35:01.809Z,8.30
2019-05-07T21:37:32.366Z,8.03
2019-05-07T21:40:02.445Z,7.53
2019-05-07T21:42:32.136Z,7.33
2019-05-07T21:45:02.119Z,8.10
2019-05-07T21:47:32.665Z,8.73
2019-05-07T21:50:02.992Z,7.30
2019-05-07T21:52:34.456Z,7.97
2019-05-07T21:55:34.950Z,7.07
2019-05-07T21:58:22.487Z,8.67
2019-05-07T22:01:19.050Z,6.97
2019-05-07T22:03:52.393Z,7.50
2019-05-07T22:06:22.784Z,7.83
2019-05-07T22:08:54.414Z,7.70
2019-05-07T22:11:23.047Z,8.40
2019-05-07T22:13:54.402Z,8.40
2019-05-07T22:16:22.806Z,8.17
2019-05-07T22:18:52.269Z,7.47
2019-05-07T22:21:21.434Z,8.40
2019-05-07T22:23:52.168Z,7.50
2019-05-07T22:26:25.682Z,7.60
2019-05-07T22:28:53.867Z,8.63
